CheckWX is a tool to help pilots better visualize weather data.  It is not intended as a substitute for an official pre-flight weather briefing.

02:44:48 UTC

FDMS METAR
Matsapha Airport
Manzini, Swaziland
Current

12 hours ago

FDMS 231500Z 10006KT CAVOK 26/01 Q1026 NOSIG
Observed
Aug-23 @ 15:00 UTC
Wind
  • 100° at 6 KTS
Visibility
10,000+ meters
Flight Rules
VFR
Cloud Levels
  • Clear skies
Temperature
26°C / 79°F
Dewpoint
C / 34°F
Humidity
20%
Altimeter
30.3" Hg
Pressure
1025.92 hPa